sensor_id;sensor_type;location;lat;lon;timestamp;P1;durP1;ratioP1;P2;durP2;ratioP2
30062;SDS011;16889;67.864;24.990;2022-12-10T00:02:43;17.87;;;4.00;;
30062;SDS011;16889;67.864;24.990;2022-12-10T00:07:29;15.77;;;2.70;;
30062;SDS011;16889;67.864;24.990;2022-12-10T00:12:15;16.87;;;3.20;;
30062;SDS011;16889;67.864;24.990;2022-12-10T00:17:01;12.23;;;3.33;;
30062;SDS011;16889;67.864;24.990;2022-12-10T00:21:47;13.10;;;3.13;;
30062;SDS011;16889;67.864;24.990;2022-12-10T00:26:34;18.33;;;3.43;;
30062;SDS011;16889;67.864;24.990;2022-12-10T00:31:23;22.95;;;4.18;;
30062;SDS011;16889;67.864;24.990;2022-12-10T00:36:16;13.52;;;3.58;;
30062;SDS011;16889;67.864;24.990;2022-12-10T00:41:05;20.92;;;3.55;;
30062;SDS011;16889;67.864;24.990;2022-12-10T00:45:51;18.60;;;3.33;;
30062;SDS011;16889;67.864;24.990;2022-12-10T00:50:38;16.60;;;3.80;;
30062;SDS011;16889;67.864;24.990;2022-12-10T00:55:24;10.83;;;2.60;;
30062;SDS011;16889;67.864;24.990;2022-12-10T01:00:10;13.83;;;3.50;;
30062;SDS011;16889;67.864;24.990;2022-12-10T01:04:58;14.18;;;3.55;;
30062;SDS011;16889;67.864;24.990;2022-12-10T01:09:44;14.00;;;3.10;;
30062;SDS011;16889;67.864;24.990;2022-12-10T01:14:32;17.33;;;3.53;;
30062;SDS011;16889;67.864;24.990;2022-12-10T01:19:18;18.42;;;3.42;;
30062;SDS011;16889;67.864;24.990;2022-12-10T01:24:05;17.65;;;3.78;;
30062;SDS011;16889;67.864;24.990;2022-12-10T01:28:52;12.80;;;3.17;;
30062;SDS011;16889;67.864;24.990;2022-12-10T01:33:40;19.65;;;4.05;;
30062;SDS011;16889;67.864;24.990;2022-12-10T01:38:26;14.65;;;3.55;;
30062;SDS011;16889;67.864;24.990;2022-12-10T01:43:13;18.90;;;3.37;;
30062;SDS011;16889;67.864;24.990;2022-12-10T01:48:00;19.13;;;5.05;;
30062;SDS011;16889;67.864;24.990;2022-12-10T01:52:46;19.23;;;3.97;;
30062;SDS011;16889;67.864;24.990;2022-12-10T01:57:32;15.50;;;3.45;;
30062;SDS011;16889;67.864;24.990;2022-12-10T02:02:38;19.40;;;3.90;;
30062;SDS011;16889;67.864;24.990;2022-12-10T02:07:41;16.42;;;3.92;;
30062;SDS011;16889;67.864;24.990;2022-12-10T02:17:42;16.52;;;3.50;;
30062;SDS011;16889;67.864;24.990;2022-12-10T02:23:24;18.95;;;3.47;;
30062;SDS011;16889;67.864;24.990;2022-12-10T02:28:09;19.50;;;4.40;;
30062;SDS011;16889;67.864;24.990;2022-12-10T02:33:11;17.77;;;3.65;;
30062;SDS011;16889;67.864;24.990;2022-12-10T02:38:05;19.08;;;3.72;;
30062;SDS011;16889;67.864;24.990;2022-12-10T02:42:53;16.75;;;4.10;;
30062;SDS011;16889;67.864;24.990;2022-12-10T02:47:39;19.00;;;4.23;;
30062;SDS011;16889;67.864;24.990;2022-12-10T02:52:26;14.60;;;3.70;;
30062;SDS011;16889;67.864;24.990;2022-12-10T02:57:35;14.80;;;3.97;;
30062;SDS011;16889;67.864;24.990;2022-12-10T03:03:09;13.80;;;3.75;;
30062;SDS011;16889;67.864;24.990;2022-12-10T03:07:39;18.77;;;4.15;;
30062;SDS011;16889;67.864;24.990;2022-12-10T03:12:32;21.80;;;3.88;;
30062;SDS011;16889;67.864;24.990;2022-12-10T03:17:24;19.88;;;4.22;;
30062;SDS011;16889;67.864;24.990;2022-12-10T03:22:14;16.88;;;4.38;;
30062;SDS011;16889;67.864;24.990;2022-12-10T03:27:04;15.30;;;3.75;;
30062;SDS011;16889;67.864;24.990;2022-12-10T03:31:51;17.77;;;4.32;;
30062;SDS011;16889;67.864;24.990;2022-12-10T03:36:39;22.00;;;4.63;;
30062;SDS011;16889;67.864;24.990;2022-12-10T03:41:26;22.17;;;3.85;;
30062;SDS011;16889;67.864;24.990;2022-12-10T03:46:12;19.10;;;4.18;;
30062;SDS011;16889;67.864;24.990;2022-12-10T03:50:58;12.63;;;3.40;;
30062;SDS011;16889;67.864;24.990;2022-12-10T03:55:44;22.60;;;3.80;;
30062;SDS011;16889;67.864;24.990;2022-12-10T04:00:30;17.90;;;3.97;;
30062;SDS011;16889;67.864;24.990;2022-12-10T04:05:16;10.75;;;2.72;;
30062;SDS011;16889;67.864;24.990;2022-12-10T04:10:02;13.80;;;4.03;;
30062;SDS011;16889;67.864;24.990;2022-12-10T04:14:49;16.60;;;4.43;;
30062;SDS011;16889;67.864;24.990;2022-12-10T04:19:53;20.98;;;4.30;;
30062;SDS011;16889;67.864;24.990;2022-12-10T04:24:39;22.63;;;4.00;;
30062;SDS011;16889;67.864;24.990;2022-12-10T04:29:46;18.08;;;4.13;;
30062;SDS011;16889;67.864;24.990;2022-12-10T04:34:32;19.63;;;4.47;;
30062;SDS011;16889;67.864;24.990;2022-12-10T04:39:18;23.13;;;4.60;;
30062;SDS011;16889;67.864;24.990;2022-12-10T04:44:04;13.27;;;4.28;;
30062;SDS011;16889;67.864;24.990;2022-12-10T04:48:50;19.10;;;4.50;;
30062;SDS011;16889;67.864;24.990;2022-12-10T04:53:36;18.80;;;3.87;;
30062;SDS011;16889;67.864;24.990;2022-12-10T04:58:22;16.53;;;4.73;;
30062;SDS011;16889;67.864;24.990;2022-12-10T05:03:08;21.83;;;4.40;;
30062;SDS011;16889;67.864;24.990;2022-12-10T05:07:54;15.70;;;3.97;;
30062;SDS011;16889;67.864;24.990;2022-12-10T05:12:40;19.83;;;4.00;;
30062;SDS011;16889;67.864;24.990;2022-12-10T05:17:26;14.77;;;4.10;;
30062;SDS011;16889;67.864;24.990;2022-12-10T05:22:12;17.87;;;4.30;;
30062;SDS011;16889;67.864;24.990;2022-12-10T05:27:17;17.10;;;4.20;;
30062;SDS011;16889;67.864;24.990;2022-12-10T05:32:03;17.57;;;4.13;;
30062;SDS011;16889;67.864;24.990;2022-12-10T05:36:49;16.15;;;4.10;;
30062;SDS011;16889;67.864;24.990;2022-12-10T05:41:36;18.40;;;4.43;;
30062;SDS011;16889;67.864;24.990;2022-12-10T05:46:25;15.52;;;4.60;;
30062;SDS011;16889;67.864;24.990;2022-12-10T05:51:14;21.75;;;4.43;;
30062;SDS011;16889;67.864;24.990;2022-12-10T05:56:03;14.38;;;4.32;;
30062;SDS011;16889;67.864;24.990;2022-12-10T06:00:51;22.08;;;4.32;;
30062;SDS011;16889;67.864;24.990;2022-12-10T06:05:37;20.67;;;4.60;;
30062;SDS011;16889;67.864;24.990;2022-12-10T06:10:25;17.40;;;4.85;;
30062;SDS011;16889;67.864;24.990;2022-12-10T06:15:11;14.80;;;3.87;;
30062;SDS011;16889;67.864;24.990;2022-12-10T06:19:57;13.33;;;4.37;;
30062;SDS011;16889;67.864;24.990;2022-12-10T06:24:43;20.00;;;3.83;;
30062;SDS011;16889;67.864;24.990;2022-12-10T06:29:29;16.83;;;4.43;;
30062;SDS011;16889;67.864;24.990;2022-12-10T06:34:15;13.13;;;3.93;;
30062;SDS011;16889;67.864;24.990;2022-12-10T06:39:02;23.02;;;5.07;;
30062;SDS011;16889;67.864;24.990;2022-12-10T06:48:34;17.25;;;4.05;;
30062;SDS011;16889;67.864;24.990;2022-12-10T06:53:21;22.58;;;4.40;;
30062;SDS011;16889;67.864;24.990;2022-12-10T06:58:07;20.97;;;4.10;;
30062;SDS011;16889;67.864;24.990;2022-12-10T07:02:53;13.27;;;3.77;;
30062;SDS011;16889;67.864;24.990;2022-12-10T07:07:39;19.53;;;4.37;;
30062;SDS011;16889;67.864;24.990;2022-12-10T07:12:25;15.47;;;4.03;;
30062;SDS011;16889;67.864;24.990;2022-12-10T07:17:11;23.80;;;4.33;;
30062;SDS011;16889;67.864;24.990;2022-12-10T07:21:57;19.60;;;4.10;;
30062;SDS011;16889;67.864;24.990;2022-12-10T07:26:43;20.93;;;3.93;;
30062;SDS011;16889;67.864;24.990;2022-12-10T07:31:31;18.55;;;3.97;;
30062;SDS011;16889;67.864;24.990;2022-12-10T07:36:18;14.57;;;3.70;;
30062;SDS011;16889;67.864;24.990;2022-12-10T07:41:08;17.58;;;4.00;;
30062;SDS011;16889;67.864;24.990;2022-12-10T07:46:02;19.13;;;4.32;;
30062;SDS011;16889;67.864;24.990;2022-12-10T07:50:55;14.30;;;4.35;;
30062;SDS011;16889;67.864;24.990;2022-12-10T07:55:42;12.98;;;3.90;;
30062;SDS011;16889;67.864;24.990;2022-12-10T08:00:28;20.93;;;4.53;;
30062;SDS011;16889;67.864;24.990;2022-12-10T08:05:14;21.20;;;4.40;;
30062;SDS011;16889;67.864;24.990;2022-12-10T08:10:00;13.23;;;4.33;;
30062;SDS011;16889;67.864;24.990;2022-12-10T08:14:46;18.77;;;3.60;;
30062;SDS011;16889;67.864;24.990;2022-12-10T08:19:32;18.13;;;4.23;;
30062;SDS011;16889;67.864;24.990;2022-12-10T08:24:18;13.03;;;3.17;;
30062;SDS011;16889;67.864;24.990;2022-12-10T08:29:04;15.93;;;4.30;;
30062;SDS011;16889;67.864;24.990;2022-12-10T08:33:50;11.97;;;3.10;;
30062;SDS011;16889;67.864;24.990;2022-12-10T08:38:37;20.73;;;4.32;;
30062;SDS011;16889;67.864;24.990;2022-12-10T08:43:23;16.27;;;4.17;;
30062;SDS011;16889;67.864;24.990;2022-12-10T08:48:09;17.38;;;4.45;;
30062;SDS011;16889;67.864;24.990;2022-12-10T08:52:55;17.67;;;3.97;;
30062;SDS011;16889;67.864;24.990;2022-12-10T08:57:41;14.90;;;4.13;;
30062;SDS011;16889;67.864;24.990;2022-12-10T09:02:27;14.60;;;4.40;;
30062;SDS011;16889;67.864;24.990;2022-12-10T09:07:13;18.17;;;4.47;;
30062;SDS011;16889;67.864;24.990;2022-12-10T09:11:59;18.33;;;4.20;;
30062;SDS011;16889;67.864;24.990;2022-12-10T09:16:45;24.20;;;5.37;;
30062;SDS011;16889;67.864;24.990;2022-12-10T09:21:31;20.90;;;4.60;;
30062;SDS011;16889;67.864;24.990;2022-12-10T09:26:17;22.93;;;4.33;;
30062;SDS011;16889;67.864;24.990;2022-12-10T09:31:05;20.20;;;4.22;;
30062;SDS011;16889;67.864;24.990;2022-12-10T09:35:53;16.17;;;4.22;;
30062;SDS011;16889;67.864;24.990;2022-12-10T09:40:48;19.90;;;4.35;;
30062;SDS011;16889;67.864;24.990;2022-12-10T09:56:21;12.82;;;4.47;;
30062;SDS011;16889;67.864;24.990;2022-12-10T10:01:10;21.25;;;4.85;;
30062;SDS011;16889;67.864;24.990;2022-12-10T10:06:01;17.35;;;4.75;;
30062;SDS011;16889;67.864;24.990;2022-12-10T10:10:49;13.98;;;4.25;;
30062;SDS011;16889;67.864;24.990;2022-12-10T10:15:36;17.00;;;4.00;;
30062;SDS011;16889;67.864;24.990;2022-12-10T10:20:25;17.42;;;4.30;;
30062;SDS011;16889;67.864;24.990;2022-12-10T10:25:18;17.50;;;4.63;;
30062;SDS011;16889;67.864;24.990;2022-12-10T10:30:06;15.80;;;4.05;;
30062;SDS011;16889;67.864;24.990;2022-12-10T10:35:01;19.40;;;4.13;;
30062;SDS011;16889;67.864;24.990;2022-12-10T10:39:49;15.32;;;4.00;;
30062;SDS011;16889;67.864;24.990;2022-12-10T10:44:37;17.42;;;5.28;;
30062;SDS011;16889;67.864;24.990;2022-12-10T10:49:25;11.65;;;3.55;;
30062;SDS011;16889;67.864;24.990;2022-12-10T10:54:33;21.30;;;4.72;;
30062;SDS011;16889;67.864;24.990;2022-12-10T10:59:29;19.13;;;4.57;;
30062;SDS011;16889;67.864;24.990;2022-12-10T11:09:45;19.70;;;4.13;;
30062;SDS011;16889;67.864;24.990;2022-12-10T11:14:40;22.40;;;4.70;;
30062;SDS011;16889;67.864;24.990;2022-12-10T11:19:31;13.68;;;3.70;;
30062;SDS011;16889;67.864;24.990;2022-12-10T11:24:17;17.00;;;4.33;;
30062;SDS011;16889;67.864;24.990;2022-12-10T11:29:17;11.30;;;3.50;;
30062;SDS011;16889;67.864;24.990;2022-12-10T11:34:09;18.77;;;4.60;;
30062;SDS011;16889;67.864;24.990;2022-12-10T11:44:37;18.30;;;4.63;;
30062;SDS011;16889;67.864;24.990;2022-12-10T11:55:56;17.00;;;4.07;;
30062;SDS011;16889;67.864;24.990;2022-12-10T12:00:25;20.70;;;5.05;;
30062;SDS011;16889;67.864;24.990;2022-12-10T12:05:36;17.05;;;4.22;;
30062;SDS011;16889;67.864;24.990;2022-12-10T12:15:49;17.20;;;3.95;;
30062;SDS011;16889;67.864;24.990;2022-12-10T12:20:48;15.52;;;4.25;;
30062;SDS011;16889;67.864;24.990;2022-12-10T12:25:48;14.17;;;3.17;;
30062;SDS011;16889;67.864;24.990;2022-12-10T12:30:39;17.00;;;4.90;;
30062;SDS011;16889;67.864;24.990;2022-12-10T12:35:51;16.02;;;4.30;;
30062;SDS011;16889;67.864;24.990;2022-12-10T12:40:46;19.13;;;4.78;;
30062;SDS011;16889;67.864;24.990;2022-12-10T12:45:40;22.70;;;6.40;;
30062;SDS011;16889;67.864;24.990;2022-12-10T12:50:46;19.17;;;5.10;;
30062;SDS011;16889;67.864;24.990;2022-12-10T12:56:04;15.27;;;4.65;;
30062;SDS011;16889;67.864;24.990;2022-12-10T13:15:55;19.95;;;4.82;;
30062;SDS011;16889;67.864;24.990;2022-12-10T13:26:24;16.40;;;4.70;;
30062;SDS011;16889;67.864;24.990;2022-12-10T13:36:01;20.92;;;5.93;;
30062;SDS011;16889;67.864;24.990;2022-12-10T13:40:56;19.40;;;4.80;;
30062;SDS011;16889;67.864;24.990;2022-12-10T13:56:30;16.08;;;4.82;;
30062;SDS011;16889;67.864;24.990;2022-12-10T14:06:41;16.05;;;4.90;;
30062;SDS011;16889;67.864;24.990;2022-12-10T14:12:03;18.90;;;4.55;;
30062;SDS011;16889;67.864;24.990;2022-12-10T14:16:48;18.27;;;4.97;;
30062;SDS011;16889;67.864;24.990;2022-12-10T14:21:36;14.43;;;4.82;;
30062;SDS011;16889;67.864;24.990;2022-12-10T14:26:31;15.95;;;4.35;;
30062;SDS011;16889;67.864;24.990;2022-12-10T14:31:21;17.55;;;4.72;;
30062;SDS011;16889;67.864;24.990;2022-12-10T14:36:47;20.42;;;5.18;;
30062;SDS011;16889;67.864;24.990;2022-12-10T14:41:36;12.60;;;4.32;;
30062;SDS011;16889;67.864;24.990;2022-12-10T14:46:23;15.43;;;4.32;;
30062;SDS011;16889;67.864;24.990;2022-12-10T14:51:14;15.10;;;4.50;;
30062;SDS011;16889;67.864;24.990;2022-12-10T14:56:04;17.25;;;5.10;;
30062;SDS011;16889;67.864;24.990;2022-12-10T15:00:53;16.13;;;4.57;;
30062;SDS011;16889;67.864;24.990;2022-12-10T15:05:39;20.80;;;4.90;;
30062;SDS011;16889;67.864;24.990;2022-12-10T15:10:37;17.30;;;4.68;;
30062;SDS011;16889;67.864;24.990;2022-12-10T15:15:29;17.80;;;4.95;;
30062;SDS011;16889;67.864;24.990;2022-12-10T15:20:22;21.48;;;4.90;;
30062;SDS011;16889;67.864;24.990;2022-12-10T15:25:22;13.93;;;4.35;;
30062;SDS011;16889;67.864;24.990;2022-12-10T15:30:21;16.65;;;4.93;;
30062;SDS011;16889;67.864;24.990;2022-12-10T15:35:19;17.17;;;5.25;;
30062;SDS011;16889;67.864;24.990;2022-12-10T15:40:06;16.67;;;4.37;;
30062;SDS011;16889;67.864;24.990;2022-12-10T15:45:16;17.33;;;5.55;;
30062;SDS011;16889;67.864;24.990;2022-12-10T15:50:12;12.88;;;4.88;;
30062;SDS011;16889;67.864;24.990;2022-12-10T15:54:58;20.10;;;6.00;;
30062;SDS011;16889;67.864;24.990;2022-12-10T15:59:45;13.98;;;5.40;;
30062;SDS011;16889;67.864;24.990;2022-12-10T16:04:32;19.48;;;5.53;;
30062;SDS011;16889;67.864;24.990;2022-12-10T16:09:18;13.02;;;4.38;;
30062;SDS011;16889;67.864;24.990;2022-12-10T16:14:04;69.30;;;26.17;;
30062;SDS011;16889;67.864;24.990;2022-12-10T16:18:51;211.82;;;71.03;;
30062;SDS011;16889;67.864;24.990;2022-12-10T16:23:55;272.40;;;89.93;;
30062;SDS011;16889;67.864;24.990;2022-12-10T16:28:43;126.93;;;41.60;;
30062;SDS011;16889;67.864;24.990;2022-12-10T16:33:30;42.28;;;13.48;;
30062;SDS011;16889;67.864;24.990;2022-12-10T16:38:21;23.17;;;6.90;;
30062;SDS011;16889;67.864;24.990;2022-12-10T16:43:21;18.25;;;6.15;;
30062;SDS011;16889;67.864;24.990;2022-12-10T16:48:10;19.58;;;6.00;;
30062;SDS011;16889;67.864;24.990;2022-12-10T16:52:56;20.98;;;6.00;;
30062;SDS011;16889;67.864;24.990;2022-12-10T16:57:48;24.70;;;6.03;;
30062;SDS011;16889;67.864;24.990;2022-12-10T17:02:35;21.30;;;7.13;;
30062;SDS011;16889;67.864;24.990;2022-12-10T17:07:21;25.13;;;10.63;;
30062;SDS011;16889;67.864;24.990;2022-12-10T17:12:08;25.73;;;8.60;;
30062;SDS011;16889;67.864;24.990;2022-12-10T17:16:55;20.43;;;6.47;;
30062;SDS011;16889;67.864;24.990;2022-12-10T17:21:42;20.50;;;6.88;;
30062;SDS011;16889;67.864;24.990;2022-12-10T17:26:29;16.70;;;4.80;;
30062;SDS011;16889;67.864;24.990;2022-12-10T17:31:17;15.55;;;5.55;;
30062;SDS011;16889;67.864;24.990;2022-12-10T17:36:03;24.67;;;7.67;;
30062;SDS011;16889;67.864;24.990;2022-12-10T17:45:37;17.75;;;6.25;;
30062;SDS011;16889;67.864;24.990;2022-12-10T17:55:15;26.30;;;8.98;;
30062;SDS011;16889;67.864;24.990;2022-12-10T18:00:01;21.20;;;6.27;;
30062;SDS011;16889;67.864;24.990;2022-12-10T18:04:50;18.70;;;5.05;;
30062;SDS011;16889;67.864;24.990;2022-12-10T18:09:36;15.20;;;4.78;;
30062;SDS011;16889;67.864;24.990;2022-12-10T18:14:22;16.70;;;5.20;;
30062;SDS011;16889;67.864;24.990;2022-12-10T18:19:10;18.58;;;5.25;;
30062;SDS011;16889;67.864;24.990;2022-12-10T18:23:59;12.38;;;4.55;;
30062;SDS011;16889;67.864;24.990;2022-12-10T18:28:55;14.77;;;5.05;;
30062;SDS011;16889;67.864;24.990;2022-12-10T18:33:44;15.93;;;5.28;;
30062;SDS011;16889;67.864;24.990;2022-12-10T18:38:32;14.38;;;4.63;;
30062;SDS011;16889;67.864;24.990;2022-12-10T18:43:18;11.85;;;4.72;;
30062;SDS011;16889;67.864;24.990;2022-12-10T18:53:11;13.00;;;4.32;;
30062;SDS011;16889;67.864;24.990;2022-12-10T18:57:57;11.98;;;4.15;;
30062;SDS011;16889;67.864;24.990;2022-12-10T19:02:43;16.15;;;4.55;;
30062;SDS011;16889;67.864;24.990;2022-12-10T19:07:29;16.25;;;4.70;;
30062;SDS011;16889;67.864;24.990;2022-12-10T19:12:15;15.50;;;5.15;;
30062;SDS011;16889;67.864;24.990;2022-12-10T19:17:04;11.85;;;3.95;;
30062;SDS011;16889;67.864;24.990;2022-12-10T19:21:50;15.15;;;5.05;;
30062;SDS011;16889;67.864;24.990;2022-12-10T19:26:37;15.13;;;6.23;;
30062;SDS011;16889;67.864;24.990;2022-12-10T19:31:24;15.85;;;6.63;;
30062;SDS011;16889;67.864;24.990;2022-12-10T19:36:22;17.77;;;6.07;;
30062;SDS011;16889;67.864;24.990;2022-12-10T19:41:09;23.13;;;6.70;;
30062;SDS011;16889;67.864;24.990;2022-12-10T19:45:56;15.07;;;5.30;;
30062;SDS011;16889;67.864;24.990;2022-12-10T19:50:44;20.20;;;6.73;;
30062;SDS011;16889;67.864;24.990;2022-12-10T19:55:30;21.08;;;6.95;;
30062;SDS011;16889;67.864;24.990;2022-12-10T20:00:26;15.57;;;4.85;;
30062;SDS011;16889;67.864;24.990;2022-12-10T20:05:14;16.55;;;4.93;;
30062;SDS011;16889;67.864;24.990;2022-12-10T20:10:01;17.25;;;5.15;;
30062;SDS011;16889;67.864;24.990;2022-12-10T20:14:47;17.15;;;4.60;;
30062;SDS011;16889;67.864;24.990;2022-12-10T20:19:33;19.03;;;6.10;;
30062;SDS011;16889;67.864;24.990;2022-12-10T20:24:20;19.90;;;6.50;;
30062;SDS011;16889;67.864;24.990;2022-12-10T20:29:14;17.50;;;5.80;;
30062;SDS011;16889;67.864;24.990;2022-12-10T20:34:03;15.20;;;4.82;;
30062;SDS011;16889;67.864;24.990;2022-12-10T20:38:53;14.48;;;4.70;;
30062;SDS011;16889;67.864;24.990;2022-12-10T20:43:39;15.10;;;5.60;;
30062;SDS011;16889;67.864;24.990;2022-12-10T20:48:26;18.65;;;5.57;;
30062;SDS011;16889;67.864;24.990;2022-12-10T20:53:12;16.37;;;4.80;;
30062;SDS011;16889;67.864;24.990;2022-12-10T20:57:58;20.47;;;5.10;;
30062;SDS011;16889;67.864;24.990;2022-12-10T21:02:44;17.90;;;4.95;;
30062;SDS011;16889;67.864;24.990;2022-12-10T21:07:30;15.03;;;4.63;;
30062;SDS011;16889;67.864;24.990;2022-12-10T21:12:16;14.20;;;4.13;;
30062;SDS011;16889;67.864;24.990;2022-12-10T21:17:02;10.00;;;3.17;;
30062;SDS011;16889;67.864;24.990;2022-12-10T21:21:48;16.37;;;5.40;;
30062;SDS011;16889;67.864;24.990;2022-12-10T21:26:34;15.43;;;5.33;;
30062;SDS011;16889;67.864;24.990;2022-12-10T21:31:22;13.13;;;4.77;;
30062;SDS011;16889;67.864;24.990;2022-12-10T21:36:10;17.02;;;4.97;;
30062;SDS011;16889;67.864;24.990;2022-12-10T21:40:57;20.13;;;5.57;;
30062;SDS011;16889;67.864;24.990;2022-12-10T21:45:47;15.70;;;4.70;;
30062;SDS011;16889;67.864;24.990;2022-12-10T21:50:35;15.23;;;4.70;;
30062;SDS011;16889;67.864;24.990;2022-12-10T21:55:22;16.85;;;4.53;;
30062;SDS011;16889;67.864;24.990;2022-12-10T22:00:08;15.93;;;4.85;;
30062;SDS011;16889;67.864;24.990;2022-12-10T22:04:56;20.92;;;5.35;;
30062;SDS011;16889;67.864;24.990;2022-12-10T22:09:43;13.60;;;4.33;;
30062;SDS011;16889;67.864;24.990;2022-12-10T22:14:29;13.37;;;5.03;;
30062;SDS011;16889;67.864;24.990;2022-12-10T22:19:15;16.87;;;6.30;;
30062;SDS011;16889;67.864;24.990;2022-12-10T22:24:01;18.00;;;5.53;;
30062;SDS011;16889;67.864;24.990;2022-12-10T22:28:47;14.60;;;5.05;;
30062;SDS011;16889;67.864;24.990;2022-12-10T22:33:34;17.17;;;5.15;;
30062;SDS011;16889;67.864;24.990;2022-12-10T22:38:22;15.20;;;4.75;;
30062;SDS011;16889;67.864;24.990;2022-12-10T22:43:08;13.07;;;4.97;;
30062;SDS011;16889;67.864;24.990;2022-12-10T22:47:54;14.82;;;4.63;;
30062;SDS011;16889;67.864;24.990;2022-12-10T22:52:40;10.70;;;4.13;;
30062;SDS011;16889;67.864;24.990;2022-12-10T22:57:26;14.57;;;4.90;;
30062;SDS011;16889;67.864;24.990;2022-12-10T23:02:13;13.57;;;4.53;;
30062;SDS011;16889;67.864;24.990;2022-12-10T23:06:59;12.95;;;3.97;;
30062;SDS011;16889;67.864;24.990;2022-12-10T23:11:45;13.27;;;4.30;;
30062;SDS011;16889;67.864;24.990;2022-12-10T23:16:50;13.93;;;3.95;;
30062;SDS011;16889;67.864;24.990;2022-12-10T23:21:36;18.87;;;4.27;;
30062;SDS011;16889;67.864;24.990;2022-12-10T23:26:21;8.00;;;3.23;;
30062;SDS011;16889;67.864;24.990;2022-12-10T23:31:07;11.80;;;3.60;;
30062;SDS011;16889;67.864;24.990;2022-12-10T23:35:55;10.70;;;4.10;;
30062;SDS011;16889;67.864;24.990;2022-12-10T23:40:41;14.17;;;4.23;;
30062;SDS011;16889;67.864;24.990;2022-12-10T23:45:28;11.55;;;3.80;;
30062;SDS011;16889;67.864;24.990;2022-12-10T23:50:14;11.63;;;3.93;;
30062;SDS011;16889;67.864;24.990;2022-12-10T23:55:00;10.60;;;3.60;;
30062;SDS011;16889;67.864;24.990;2022-12-10T23:59:46;15.50;;;4.40;;
